createdAt,value
2019-02-06T00:01:13.318Z,52.00
2019-02-06T00:06:20.786Z,51.13
2019-02-06T00:11:26.331Z,55.00
2019-02-06T00:16:34.097Z,53.89
2019-02-06T00:21:41.470Z,53.13
2019-02-06T00:26:45.739Z,57.00
2019-02-06T00:31:50.667Z,53.25
2019-02-06T00:36:58.480Z,57.00
2019-02-06T00:42:08.777Z,55.38
2019-02-06T00:47:17.087Z,55.22
2019-02-06T00:52:27.891Z,57.56
2019-02-06T00:57:36.030Z,53.44
2019-02-06T01:02:47.207Z,57.00
2019-02-06T01:07:54.323Z,53.00
2019-02-06T01:13:02.767Z,55.00
2019-02-06T01:18:12.665Z,55.44
2019-02-06T01:23:20.844Z,52.22
2019-02-06T01:28:29.196Z,53.22
2019-02-06T01:33:32.675Z,53.00
2019-02-06T01:38:39.443Z,54.50
2019-02-06T01:43:43.743Z,52.00
2019-02-06T01:48:51.088Z,50.78
2019-02-06T01:53:57.873Z,50.75
2019-02-06T01:59:06.119Z,54.56
2019-02-06T02:04:11.246Z,52.75
2019-02-06T02:09:18.431Z,50.88
2019-02-06T02:14:26.718Z,52.00
2019-02-06T02:19:35.847Z,52.00
2019-02-06T02:24:43.364Z,51.22
2019-02-06T02:29:48.431Z,50.57
2019-02-06T02:34:55.212Z,51.63
2019-02-06T02:40:06.626Z,50.22
2019-02-06T02:45:12.742Z,50.00
2019-02-06T02:50:18.423Z,51.37
2019-02-06T02:55:27.557Z,52.00
2019-02-06T03:00:36.007Z,51.00
2019-02-06T03:05:46.008Z,51.67
2019-02-06T03:10:50.972Z,51.00
2019-02-06T03:15:57.596Z,54.50
2019-02-06T03:21:03.230Z,51.00
2019-02-06T03:26:11.687Z,52.75
2019-02-06T03:31:16.693Z,50.00
2019-02-06T03:36:22.493Z,53.25
2019-02-06T03:41:30.825Z,48.25
2019-02-06T03:46:40.738Z,50.11
2019-02-06T03:51:46.387Z,50.00
2019-02-06T03:56:54.863Z,49.75
2019-02-06T04:02:00.950Z,49.75
2019-02-06T04:07:05.291Z,50.25
2019-02-06T04:12:12.864Z,48.33
2019-02-06T04:17:17.926Z,49.86
2019-02-06T04:22:27.198Z,49.50
2019-02-06T04:27:36.414Z,48.75
2019-02-06T04:32:43.780Z,47.56
2019-02-06T04:37:52.022Z,48.00
2019-02-06T04:42:58.699Z,51.56
2019-02-06T04:48:08.744Z,49.89
2019-02-06T04:53:18.051Z,51.00
2019-02-06T04:58:26.159Z,49.44
2019-02-06T05:03:34.335Z,50.11
2019-02-06T05:08:42.724Z,51.00
2019-02-06T05:13:52.660Z,50.78
2019-02-06T05:19:02.699Z,49.50
2019-02-06T05:24:09.810Z,50.56
2019-02-06T05:29:19.685Z,50.78
2019-02-06T05:34:24.639Z,51.50
2019-02-06T05:39:32.537Z,49.44
2019-02-06T05:44:40.797Z,50.00
2019-02-06T05:49:48.854Z,47.67
2019-02-06T05:54:58.802Z,48.00
2019-02-06T06:00:08.595Z,46.33
2019-02-06T06:05:17.474Z,50.63
2019-02-06T06:10:25.051Z,49.75
2019-02-06T06:15:34.301Z,48.75
2019-02-06T06:20:42.501Z,44.00
2019-02-06T06:25:51.759Z,51.25
2019-02-06T06:30:59.282Z,47.75
2019-02-06T06:36:09.422Z,46.67
2019-02-06T06:41:15.448Z,50.75
2019-02-06T06:46:22.893Z,47.88
2019-02-06T06:51:31.181Z,50.78
2019-02-06T06:56:39.435Z,47.89
2019-02-06T07:01:47.818Z,49.00
2019-02-06T07:06:58.775Z,50.75
2019-02-06T07:12:09.635Z,51.92
2019-02-06T07:17:19.535Z,49.00
2019-02-06T07:22:26.982Z,46.13
2019-02-06T07:27:34.496Z,57.22
2019-02-06T07:32:43.775Z,52.13
2019-02-06T07:37:48.082Z,52.83
2019-02-06T07:42:57.322Z,49.89
2019-02-06T07:48:02.660Z,55.29
2019-02-06T07:53:09.150Z,52.00
2019-02-06T07:58:17.410Z,51.00
2019-02-06T08:03:22.387Z,49.75
2019-02-06T08:08:36.153Z,50.67
2019-02-06T08:13:40.609Z,50.00
2019-02-06T08:18:48.869Z,51.89
2019-02-06T08:23:56.296Z,50.00
2019-02-06T08:29:03.874Z,45.38
2019-02-06T08:34:12.082Z,48.44
2019-02-06T08:39:20.589Z,47.22
2019-02-06T08:44:27.984Z,49.88
2019-02-06T08:49:38.170Z,60.00
2019-02-06T08:54:45.635Z,49.00
2019-02-06T08:59:53.174Z,50.00
2019-02-06T09:05:00.704Z,47.38
2019-02-06T09:10:13.215Z,50.89
2019-02-06T09:15:19.308Z,54.13
2019-02-06T09:20:27.702Z,48.67
2019-02-06T09:25:36.092Z,49.00
2019-02-06T09:30:44.699Z,45.12
2019-02-06T09:35:52.894Z,46.67
2019-02-06T09:41:01.261Z,49.88
2019-02-06T09:46:10.495Z,48.75
2019-02-06T09:51:19.341Z,48.00
2019-02-06T09:56:26.902Z,47.50
2019-02-06T10:01:36.118Z,48.42
2019-02-06T10:06:40.422Z,45.50
2019-02-06T10:11:47.220Z,42.13
2019-02-06T10:16:52.176Z,42.75
2019-02-06T10:21:55.320Z,33.67
2019-02-06T10:27:03.411Z,34.00
2019-02-06T10:32:12.314Z,33.50
2019-02-06T10:37:19.619Z,33.00
2019-02-06T10:42:27.115Z,28.12
2019-02-06T10:47:36.066Z,30.25
2019-02-06T10:52:43.159Z,31.75
2019-02-06T10:57:47.773Z,31.75
2019-02-06T11:02:56.800Z,32.00
2019-02-06T11:08:04.142Z,31.62
2019-02-06T11:13:10.962Z,30.62
2019-02-06T11:18:18.169Z,27.62
2019-02-06T11:23:24.846Z,28.62
2019-02-06T11:28:33.722Z,26.25
2019-02-06T11:33:42.426Z,25.37
2019-02-06T11:38:48.746Z,24.00
2019-02-06T11:43:55.922Z,27.13
2019-02-06T11:49:03.548Z,28.38
2019-02-06T11:54:10.235Z,25.00
2019-02-06T11:59:18.154Z,30.00
2019-02-06T12:04:21.317Z,22.25
2019-02-06T12:09:25.759Z,25.50
2019-02-06T12:14:31.826Z,17.00
2019-02-06T12:19:36.151Z,18.00
2019-02-06T12:24:42.270Z,18.75
2019-02-06T12:29:51.682Z,18.90
2019-02-06T12:34:55.301Z,18.00
2019-02-06T12:39:58.670Z,19.67
2019-02-06T12:45:04.077Z,21.00
2019-02-06T12:50:09.785Z,12.86
2019-02-06T12:55:19.521Z,12.71
2019-02-06T13:00:26.230Z,11.00
2019-02-06T13:05:32.255Z,18.57
2019-02-06T13:10:36.963Z,16.75
2019-02-06T13:15:42.642Z,18.00
2019-02-06T13:20:51.199Z,28.40
2019-02-06T13:25:56.023Z,22.00
2019-02-06T13:31:04.376Z,20.75
2019-02-06T13:36:11.463Z,26.62
2019-02-06T13:41:15.028Z,17.80
2019-02-06T13:46:20.291Z,15.00
2019-02-06T13:51:26.169Z,13.86
2019-02-06T13:56:29.728Z,18.25
2019-02-06T14:01:33.226Z,19.00
2019-02-06T14:06:39.134Z,20.50
2019-02-06T14:11:42.678Z,16.67
2019-02-06T14:16:48.227Z,18.29
2019-02-06T14:21:53.713Z,20.00
2019-02-06T14:26:58.545Z,18.00
2019-02-06T14:32:08.613Z,16.75
2019-02-06T14:37:17.273Z,16.71
2019-02-06T14:42:25.262Z,18.50
2019-02-06T14:47:34.557Z,13.43
2019-02-06T14:52:49.242Z,14.50
2019-02-06T14:58:03.018Z,14.25
2019-02-06T15:03:13.836Z,16.25
2019-02-06T15:08:33.539Z,18.37
2019-02-06T15:13:38.447Z,22.67
2019-02-06T15:18:47.415Z,18.33
2019-02-06T15:23:59.491Z,23.00
2019-02-06T15:29:08.632Z,34.00
2019-02-06T15:34:27.018Z,25.00
2019-02-06T15:39:36.747Z,22.37
2019-02-06T15:44:45.065Z,29.50
2019-02-06T15:49:52.287Z,27.87
2019-02-06T15:55:05.545Z,24.25
2019-02-06T16:00:21.909Z,20.62
2019-02-06T16:05:40.622Z,44.63
2019-02-06T16:10:52.071Z,22.50
2019-02-06T16:16:00.287Z,23.50
2019-02-06T16:21:19.190Z,33.00
2019-02-06T16:26:38.777Z,43.25
2019-02-06T16:32:03.880Z,31.37
2019-02-06T16:37:20.305Z,31.75
2019-02-06T16:42:28.802Z,37.75
2019-02-06T16:47:45.113Z,39.00
2019-02-06T16:52:45.946Z,45.00
2019-02-06T16:57:59.044Z,32.56
2019-02-06T17:03:11.931Z,27.37
2019-02-06T17:08:27.550Z,30.12
2019-02-06T17:13:45.111Z,38.75
2019-02-06T17:18:59.698Z,43.00
2019-02-06T17:24:21.351Z,45.50
2019-02-06T17:29:32.742Z,45.00
2019-02-06T17:34:41.372Z,43.75
2019-02-06T17:39:53.477Z,46.00
2019-02-06T17:44:59.010Z,43.00
2019-02-06T17:50:12.411Z,49.75
2019-02-06T17:55:17.411Z,50.00
2019-02-06T18:00:29.277Z,52.62
2019-02-06T18:05:36.991Z,48.22
2019-02-06T18:10:46.060Z,58.11
2019-02-06T18:15:57.070Z,53.00
2019-02-06T18:21:06.018Z,58.44
2019-02-06T18:26:11.007Z,52.00
2019-02-06T18:31:18.715Z,54.11
2019-02-06T18:36:26.338Z,63.00
2019-02-06T18:41:37.160Z,58.56
2019-02-06T18:46:46.375Z,57.89
2019-02-06T18:51:52.143Z,60.29
2019-02-06T18:57:02.166Z,74.44
2019-02-06T19:02:07.548Z,66.00
2019-02-06T19:07:11.810Z,54.67
2019-02-06T19:12:20.210Z,60.89
2019-02-06T19:17:28.626Z,54.78
2019-02-06T19:22:38.995Z,64.00
2019-02-06T19:27:49.118Z,59.08
2019-02-06T19:32:56.671Z,52.38
2019-02-06T19:38:05.157Z,53.33
2019-02-06T19:43:14.860Z,59.22
2019-02-06T19:48:22.521Z,60.89
2019-02-06T19:53:29.931Z,50.00
2019-02-06T19:58:41.008Z,48.78
2019-02-06T20:03:49.162Z,50.00
2019-02-06T20:08:59.235Z,48.56
2019-02-06T20:14:04.240Z,51.25
2019-02-06T20:19:11.765Z,48.63
2019-02-06T20:24:15.241Z,53.00
2019-02-06T20:29:25.294Z,56.44
2019-02-06T20:34:33.582Z,51.56
2019-02-06T20:39:41.717Z,49.89
2019-02-06T20:44:51.538Z,50.22
2019-02-06T20:49:57.287Z,51.25
2019-02-06T20:55:06.670Z,51.78
2019-02-06T21:00:16.266Z,48.22
2019-02-06T21:05:25.580Z,49.78
2019-02-06T21:10:30.398Z,50.33
2019-02-06T21:15:37.649Z,52.25
2019-02-06T21:20:42.374Z,56.00
2019-02-06T21:25:47.170Z,51.00
2019-02-06T21:30:55.499Z,54.50
2019-02-06T21:36:03.695Z,53.87
2019-02-06T21:41:10.060Z,51.37
2019-02-06T21:46:13.126Z,52.00
2019-02-06T21:51:16.452Z,51.00
2019-02-06T21:56:23.897Z,52.25
2019-02-06T22:01:30.656Z,52.00
2019-02-06T22:06:39.120Z,52.88
2019-02-06T22:11:47.536Z,54.56
2019-02-06T22:16:57.449Z,50.11
2019-02-06T22:22:05.711Z,48.00
2019-02-06T22:27:13.134Z,46.25
2019-02-06T22:32:17.054Z,51.00
2019-02-06T22:37:26.139Z,48.33
2019-02-06T22:42:36.042Z,50.78
2019-02-06T22:47:44.942Z,49.38
2019-02-06T22:52:54.883Z,48.00
2019-02-06T22:58:02.225Z,50.00
2019-02-06T23:03:09.717Z,50.00
2019-02-06T23:08:18.543Z,50.88
2019-02-06T23:13:23.658Z,56.29
2019-02-06T23:18:31.525Z,57.11
2019-02-06T23:23:42.499Z,67.00
2019-02-06T23:28:52.844Z,67.10
2019-02-06T23:34:04.742Z,62.10
2019-02-06T23:39:09.955Z,66.00
2019-02-06T23:44:28.547Z,68.70
2019-02-06T23:49:35.111Z,84.20
2019-02-06T23:54:43.930Z,85.80
2019-02-06T23:59:47.706Z,93.00
